sensor_id;sensor_type;location;lat;lon;timestamp;pressure;altitude;pressure_sealevel;temperature;humidity
64862;BME280;62652;42.274;-71.436;2023-04-06T00:00:01;101830.0;;;4.8888888888888875;unknown
64862;BME280;62652;42.274;-71.436;2023-04-06T00:01:01;101820.0;;;4.8888888888888875;unknown
64862;BME280;62652;42.274;-71.436;2023-04-06T00:02:01;101820.0;;;4.8888888888888875;unknown
64862;BME280;62652;42.274;-71.436;2023-04-06T00:03:01;101820.0;;;4.8888888888888875;unknown
64862;BME280;62652;42.274;-71.436;2023-04-06T00:04:01;101820.0;;;4.8888888888888875;unknown
64862;BME280;62652;42.274;-71.436;2023-04-06T00:05:01;101810.0;;;4.8888888888888875;unknown
64862;BME280;62652;42.274;-71.436;2023-04-06T00:06:01;101810.0;;;4.8888888888888875;unknown
64862;BME280;62652;42.274;-71.436;2023-04-06T00:07:01;101810.0;;;4.8888888888888875;unknown
64862;BME280;62652;42.274;-71.436;2023-04-06T00:08:01;101820.0;;;5.0;unknown
64862;BME280;62652;42.274;-71.436;2023-04-06T00:09:01;101820.0;;;4.8888888888888875;unknown
64862;BME280;62652;42.274;-71.436;2023-04-06T00:10:01;101820.0;;;4.8888888888888875;unknown
64862;BME280;62652;42.274;-71.436;2023-04-06T00:11:01;101820.0;;;4.8888888888888875;unknown
64862;BME280;62652;42.274;-71.436;2023-04-06T00:12:01;101820.0;;;5.0;unknown
64862;BME280;62652;42.274;-71.436;2023-04-06T00:13:01;101820.0;;;4.8888888888888875;unknown
64862;BME280;62652;42.274;-71.436;2023-04-06T00:14:01;101820.0;;;4.8888888888888875;unknown
64862;BME280;62652;42.274;-71.436;2023-04-06T00:15:01;101810.0;;;4.8888888888888875;unknown
64862;BME280;62652;42.274;-71.436;2023-04-06T00:16:01;101810.0;;;4.8888888888888875;unknown
64862;BME280;62652;42.274;-71.436;2023-04-06T00:17:01;101820.0;;;4.777777777777779;unknown
64862;BME280;62652;42.274;-71.436;2023-04-06T00:18:01;101830.0;;;4.777777777777779;unknown
64862;BME280;62652;42.274;-71.436;2023-04-06T00:19:01;101830.0;;;4.777777777777779;unknown
64862;BME280;62652;42.274;-71.436;2023-04-06T00:20:01;101840.0;;;4.8888888888888875;unknown
64862;BME280;62652;42.274;-71.436;2023-04-06T00:21:01;101840.0;;;5.0;unknown
64862;BME280;62652;42.274;-71.436;2023-04-06T00:22:01;101850.0;;;5.0;unknown
64862;BME280;62652;42.274;-71.436;2023-04-06T00:23:01;101850.0;;;5.1111111111111125;unknown
64862;BME280;62652;42.274;-71.436;2023-04-06T00:24:01;101860.0;;;5.222222222222221;unknown
64862;BME280;62652;42.274;-71.436;2023-04-06T00:25:01;101870.0;;;5.1111111111111125;unknown
64862;BME280;62652;42.274;-71.436;2023-04-06T00:26:01;101860.0;;;5.1111111111111125;unknown
64862;BME280;62652;42.274;-71.436;2023-04-06T00:27:01;101860.0;;;5.222222222222221;unknown
64862;BME280;62652;42.274;-71.436;2023-04-06T00:28:01;101850.0;;;5.222222222222221;unknown
64862;BME280;62652;42.274;-71.436;2023-04-06T00:29:01;101840.0;;;5.1111111111111125;unknown
64862;BME280;62652;42.274;-71.436;2023-04-06T00:30:01;101850.0;;;5.1111111111111125;unknown
64862;BME280;62652;42.274;-71.436;2023-04-06T00:31:01;101850.0;;;5.222222222222221;unknown
64862;BME280;62652;42.274;-71.436;2023-04-06T00:32:01;101860.0;;;5.222222222222221;unknown
64862;BME280;62652;42.274;-71.436;2023-04-06T00:33:01;101870.0;;;5.222222222222221;unknown
64862;BME280;62652;42.274;-71.436;2023-04-06T00:34:01;101870.0;;;5.222222222222221;unknown
64862;BME280;62652;42.274;-71.436;2023-04-06T00:35:02;101870.0;;;5.222222222222221;unknown
64862;BME280;62652;42.274;-71.436;2023-04-06T00:36:01;101870.0;;;5.1111111111111125;unknown
64862;BME280;62652;42.274;-71.436;2023-04-06T00:37:01;101870.0;;;5.1111111111111125;unknown
64862;BME280;62652;42.274;-71.436;2023-04-06T00:38:01;101870.0;;;5.222222222222221;unknown
64862;BME280;62652;42.274;-71.436;2023-04-06T00:39:01;101860.0;;;5.222222222222221;unknown
64862;BME280;62652;42.274;-71.436;2023-04-06T00:40:01;101870.0;;;5.0;unknown
64862;BME280;62652;42.274;-71.436;2023-04-06T00:41:01;101880.0;;;5.0;unknown
64862;BME280;62652;42.274;-71.436;2023-04-06T00:42:07;101880.0;;;5.0;unknown
64862;BME280;62652;42.274;-71.436;2023-04-06T00:43:01;101890.0;;;5.0;unknown
64862;BME280;62652;42.274;-71.436;2023-04-06T00:44:01;101890.0;;;5.0;unknown
64862;BME280;62652;42.274;-71.436;2023-04-06T00:45:01;101890.0;;;5.1111111111111125;unknown
64862;BME280;62652;42.274;-71.436;2023-04-06T00:46:01;101880.0;;;5.1111111111111125;unknown
64862;BME280;62652;42.274;-71.436;2023-04-06T00:47:01;101880.0;;;5.1111111111111125;unknown
64862;BME280;62652;42.274;-71.436;2023-04-06T00:48:01;101880.0;;;5.1111111111111125;unknown
64862;BME280;62652;42.274;-71.436;2023-04-06T00:49:01;101880.0;;;5.1111111111111125;unknown
64862;BME280;62652;42.274;-71.436;2023-04-06T00:50:01;101880.0;;;5.222222222222221;unknown
64862;BME280;62652;42.274;-71.436;2023-04-06T00:51:01;101880.0;;;5.222222222222221;unknown
64862;BME280;62652;42.274;-71.436;2023-04-06T00:52:01;101880.0;;;5.222222222222221;unknown
64862;BME280;62652;42.274;-71.436;2023-04-06T00:53:01;101890.0;;;5.222222222222221;unknown
64862;BME280;62652;42.274;-71.436;2023-04-06T00:54:01;101890.0;;;5.222222222222221;unknown
64862;BME280;62652;42.274;-71.436;2023-04-06T00:55:01;101890.0;;;5.1111111111111125;unknown
64862;BME280;62652;42.274;-71.436;2023-04-06T00:56:01;101890.0;;;5.1111111111111125;unknown
64862;BME280;62652;42.274;-71.436;2023-04-06T00:57:01;101890.0;;;5.1111111111111125;unknown
64862;BME280;62652;42.274;-71.436;2023-04-06T00:58:01;101890.0;;;5.1111111111111125;unknown
64862;BME280;62652;42.274;-71.436;2023-04-06T00:59:01;101890.0;;;5.1111111111111125;unknown
64862;BME280;62652;42.274;-71.436;2023-04-06T01:00:01;101890.0;;;5.1111111111111125;unknown
64862;BME280;62652;42.274;-71.436;2023-04-06T01:01:01;101890.0;;;5.1111111111111125;unknown
64862;BME280;62652;42.274;-71.436;2023-04-06T01:02:01;101890.0;;;5.1111111111111125;unknown
64862;BME280;62652;42.274;-71.436;2023-04-06T01:03:01;101880.0;;;5.222222222222221;unknown
64862;BME280;62652;42.274;-71.436;2023-04-06T01:04:01;101880.0;;;5.222222222222221;unknown
64862;BME280;62652;42.274;-71.436;2023-04-06T01:05:01;101870.0;;;5.222222222222221;unknown
64862;BME280;62652;42.274;-71.436;2023-04-06T01:06:01;101860.0;;;5.222222222222221;unknown
64862;BME280;62652;42.274;-71.436;2023-04-06T01:07:01;101860.0;;;5.222222222222221;unknown
64862;BME280;62652;42.274;-71.436;2023-04-06T01:08:01;101850.0;;;5.1111111111111125;unknown
64862;BME280;62652;42.274;-71.436;2023-04-06T01:09:01;101850.0;;;5.1111111111111125;unknown
64862;BME280;62652;42.274;-71.436;2023-04-06T01:10:01;101850.0;;;5.1111111111111125;unknown
64862;BME280;62652;42.274;-71.436;2023-04-06T01:11:01;101850.0;;;5.222222222222221;unknown
64862;BME280;62652;42.274;-71.436;2023-04-06T01:12:01;101840.0;;;5.222222222222221;unknown
64862;BME280;62652;42.274;-71.436;2023-04-06T01:13:01;101850.0;;;5.1111111111111125;unknown
64862;BME280;62652;42.274;-71.436;2023-04-06T01:14:01;101850.0;;;5.222222222222221;unknown
64862;BME280;62652;42.274;-71.436;2023-04-06T01:15:01;101840.0;;;5.222222222222221;unknown
64862;BME280;62652;42.274;-71.436;2023-04-06T01:16:01;101840.0;;;5.222222222222221;unknown
64862;BME280;62652;42.274;-71.436;2023-04-06T01:17:01;101830.0;;;5.222222222222221;unknown
64862;BME280;62652;42.274;-71.436;2023-04-06T01:18:01;101820.0;;;5.1111111111111125;unknown
64862;BME280;62652;42.274;-71.436;2023-04-06T01:19:01;101810.0;;;5.1111111111111125;unknown
64862;BME280;62652;42.274;-71.436;2023-04-06T01:20:01;101810.0;;;5.1111111111111125;unknown
64862;BME280;62652;42.274;-71.436;2023-04-06T01:21:01;101800.0;;;5.1111111111111125;unknown
64862;BME280;62652;42.274;-71.436;2023-04-06T01:22:01;101800.0;;;5.0;unknown
64862;BME280;62652;42.274;-71.436;2023-04-06T01:23:00;101780.0;;;5.0;unknown
64862;BME280;62652;42.274;-71.436;2023-04-06T01:24:01;101780.0;;;4.777777777777779;unknown
64862;BME280;62652;42.274;-71.436;2023-04-06T01:25:01;101780.0;;;4.777777777777779;unknown
64862;BME280;62652;42.274;-71.436;2023-04-06T01:26:01;101770.0;;;4.8888888888888875;unknown
64862;BME280;62652;42.274;-71.436;2023-04-06T01:27:01;101770.0;;;4.8888888888888875;unknown
64862;BME280;62652;42.274;-71.436;2023-04-06T01:28:01;101790.0;;;4.8888888888888875;unknown
64862;BME280;62652;42.274;-71.436;2023-04-06T01:29:02;101790.0;;;4.777777777777779;unknown
64862;BME280;62652;42.274;-71.436;2023-04-06T01:30:01;101770.0;;;4.722222222222222;unknown
64862;BME280;62652;42.274;-71.436;2023-04-06T01:31:01;101750.0;;;4.777777777777779;unknown
64862;BME280;62652;42.274;-71.436;2023-04-06T01:32:01;101760.0;;;4.777777777777779;unknown
64862;BME280;62652;42.274;-71.436;2023-04-06T01:33:01;101760.0;;;4.777777777777779;unknown
64862;BME280;62652;42.274;-71.436;2023-04-06T01:34:01;101750.0;;;4.777777777777779;unknown
64862;BME280;62652;42.274;-71.436;2023-04-06T01:35:00;101750.0;;;4.777777777777779;unknown
64862;BME280;62652;42.274;-71.436;2023-04-06T01:36:01;101750.0;;;4.777777777777779;unknown
64862;BME280;62652;42.274;-71.436;2023-04-06T01:37:01;101750.0;;;4.722222222222222;unknown
64862;BME280;62652;42.274;-71.436;2023-04-06T01:38:01;101750.0;;;4.777777777777779;unknown
64862;BME280;62652;42.274;-71.436;2023-04-06T01:39:01;101770.0;;;4.777777777777779;unknown
64862;BME280;62652;42.274;-71.436;2023-04-06T01:40:01;101770.0;;;4.777777777777779;unknown
64862;BME280;62652;42.274;-71.436;2023-04-06T01:41:01;101770.0;;;4.777777777777779;unknown
64862;BME280;62652;42.274;-71.436;2023-04-06T01:42:01;101770.0;;;4.777777777777779;unknown
64862;BME280;62652;42.274;-71.436;2023-04-06T01:43:01;101780.0;;;4.777777777777779;unknown
64862;BME280;62652;42.274;-71.436;2023-04-06T01:44:01;101780.0;;;4.8888888888888875;unknown
64862;BME280;62652;42.274;-71.436;2023-04-06T01:45:00;101780.0;;;4.8888888888888875;unknown
64862;BME280;62652;42.274;-71.436;2023-04-06T01:46:01;101770.0;;;4.8888888888888875;unknown
64862;BME280;62652;42.274;-71.436;2023-04-06T01:47:01;101780.0;;;4.8888888888888875;unknown
64862;BME280;62652;42.274;-71.436;2023-04-06T01:48:01;101780.0;;;4.8888888888888875;unknown
64862;BME280;62652;42.274;-71.436;2023-04-06T01:49:01;101770.0;;;5.0;unknown
64862;BME280;62652;42.274;-71.436;2023-04-06T01:50:01;101760.0;;;5.0;unknown
64862;BME280;62652;42.274;-71.436;2023-04-06T01:51:01;101760.0;;;5.1111111111111125;unknown
64862;BME280;62652;42.274;-71.436;2023-04-06T01:52:01;101760.0;;;5.0;unknown
64862;BME280;62652;42.274;-71.436;2023-04-06T01:53:01;101750.0;;;5.1111111111111125;unknown
64862;BME280;62652;42.274;-71.436;2023-04-06T01:54:01;101740.0;;;5.0;unknown
64862;BME280;62652;42.274;-71.436;2023-04-06T01:55:01;101740.0;;;5.0;unknown
64862;BME280;62652;42.274;-71.436;2023-04-06T01:56:01;101730.0;;;5.1111111111111125;unknown
64862;BME280;62652;42.274;-71.436;2023-04-06T01:57:01;101720.0;;;5.0;unknown
64862;BME280;62652;42.274;-71.436;2023-04-06T01:58:01;101720.0;;;5.0;unknown
64862;BME280;62652;42.274;-71.436;2023-04-06T01:59:01;101710.0;;;4.8888888888888875;unknown
64862;BME280;62652;42.274;-71.436;2023-04-06T02:00:01;101710.0;;;4.8888888888888875;unknown
64862;BME280;62652;42.274;-71.436;2023-04-06T02:01:01;101710.0;;;4.8888888888888875;unknown
64862;BME280;62652;42.274;-71.436;2023-04-06T02:02:01;101720.0;;;4.777777777777779;unknown
64862;BME280;62652;42.274;-71.436;2023-04-06T02:03:01;101720.0;;;4.8888888888888875;unknown
64862;BME280;62652;42.274;-71.436;2023-04-06T02:04:01;101720.0;;;4.8888888888888875;unknown
64862;BME280;62652;42.274;-71.436;2023-04-06T02:05:01;101730.0;;;4.8888888888888875;unknown
64862;BME280;62652;42.274;-71.436;2023-04-06T02:06:01;101740.0;;;5.0;unknown
64862;BME280;62652;42.274;-71.436;2023-04-06T02:07:01;101740.0;;;5.0;unknown
64862;BME280;62652;42.274;-71.436;2023-04-06T02:08:01;101740.0;;;5.0;unknown
64862;BME280;62652;42.274;-71.436;2023-04-06T02:09:01;101740.0;;;4.8888888888888875;unknown
64862;BME280;62652;42.274;-71.436;2023-04-06T02:10:01;101740.0;;;5.0;unknown
64862;BME280;62652;42.274;-71.436;2023-04-06T02:11:01;101740.0;;;4.8888888888888875;unknown
64862;BME280;62652;42.274;-71.436;2023-04-06T02:12:01;101740.0;;;4.8888888888888875;unknown
64862;BME280;62652;42.274;-71.436;2023-04-06T02:13:01;101740.0;;;5.0;unknown
64862;BME280;62652;42.274;-71.436;2023-04-06T02:14:01;101740.0;;;5.0;unknown
64862;BME280;62652;42.274;-71.436;2023-04-06T02:15:01;101750.0;;;5.0;unknown
64862;BME280;62652;42.274;-71.436;2023-04-06T02:16:01;101750.0;;;4.8888888888888875;unknown
64862;BME280;62652;42.274;-71.436;2023-04-06T02:17:01;101760.0;;;4.8888888888888875;unknown
64862;BME280;62652;42.274;-71.436;2023-04-06T02:18:01;101770.0;;;4.8888888888888875;unknown
64862;BME280;62652;42.274;-71.436;2023-04-06T02:19:01;101770.0;;;4.777777777777779;unknown
64862;BME280;62652;42.274;-71.436;2023-04-06T02:20:01;101770.0;;;4.8888888888888875;unknown
64862;BME280;62652;42.274;-71.436;2023-04-06T02:21:01;101780.0;;;4.777777777777779;unknown
64862;BME280;62652;42.274;-71.436;2023-04-06T02:22:01;101770.0;;;4.777777777777779;unknown
64862;BME280;62652;42.274;-71.436;2023-04-06T02:23:01;101760.0;;;4.777777777777779;unknown
64862;BME280;62652;42.274;-71.436;2023-04-06T02:24:01;101760.0;;;4.722222222222222;unknown
64862;BME280;62652;42.274;-71.436;2023-04-06T02:25:01;101760.0;;;4.722222222222222;unknown
64862;BME280;62652;42.274;-71.436;2023-04-06T02:26:01;101750.0;;;4.777777777777779;unknown
64862;BME280;62652;42.274;-71.436;2023-04-06T02:27:01;101760.0;;;4.722222222222222;unknown
64862;BME280;62652;42.274;-71.436;2023-04-06T02:28:01;101750.0;;;4.777777777777779;unknown
64862;BME280;62652;42.274;-71.436;2023-04-06T02:29:01;101750.0;;;4.777777777777779;unknown
64862;BME280;62652;42.274;-71.436;2023-04-06T02:30:01;101750.0;;;4.777777777777779;unknown
64862;BME280;62652;42.274;-71.436;2023-04-06T02:31:01;101750.0;;;4.777777777777779;unknown
64862;BME280;62652;42.274;-71.436;2023-04-06T02:32:01;101750.0;;;4.722222222222222;unknown
64862;BME280;62652;42.274;-71.436;2023-04-06T02:33:01;101750.0;;;4.722222222222222;unknown
64862;BME280;62652;42.274;-71.436;2023-04-06T02:34:01;101750.0;;;4.722222222222222;unknown
64862;BME280;62652;42.274;-71.436;2023-04-06T02:35:01;101750.0;;;4.722222222222222;unknown
64862;BME280;62652;42.274;-71.436;2023-04-06T02:36:01;101750.0;;;4.61111111111111;unknown
64862;BME280;62652;42.274;-71.436;2023-04-06T02:37:01;101750.0;;;4.61111111111111;unknown
64862;BME280;62652;42.274;-71.436;2023-04-06T02:38:01;101750.0;;;4.500000000000001;unknown
64862;BME280;62652;42.274;-71.436;2023-04-06T02:39:01;101750.0;;;4.500000000000001;unknown
64862;BME280;62652;42.274;-71.436;2023-04-06T02:40:01;101750.0;;;4.500000000000001;unknown
64862;BME280;62652;42.274;-71.436;2023-04-06T02:41:01;101750.0;;;4.500000000000001;unknown
64862;BME280;62652;42.274;-71.436;2023-04-06T02:42:01;101760.0;;;4.500000000000001;unknown
64862;BME280;62652;42.274;-71.436;2023-04-06T02:43:01;101770.0;;;4.500000000000001;unknown
64862;BME280;62652;42.274;-71.436;2023-04-06T02:44:01;101760.0;;;4.500000000000001;unknown
64862;BME280;62652;42.274;-71.436;2023-04-06T02:45:01;101750.0;;;4.500000000000001;unknown
64862;BME280;62652;42.274;-71.436;2023-04-06T02:46:01;101750.0;;;4.500000000000001;unknown
64862;BME280;62652;42.274;-71.436;2023-04-06T02:47:01;101750.0;;;4.500000000000001;unknown
64862;BME280;62652;42.274;-71.436;2023-04-06T02:48:01;101740.0;;;4.500000000000001;unknown
64862;BME280;62652;42.274;-71.436;2023-04-06T02:49:01;101740.0;;;4.500000000000001;unknown
64862;BME280;62652;42.274;-71.436;2023-04-06T02:50:01;101730.0;;;4.61111111111111;unknown
64862;BME280;62652;42.274;-71.436;2023-04-06T02:51:01;101730.0;;;4.61111111111111;unknown
64862;BME280;62652;42.274;-71.436;2023-04-06T02:52:02;101740.0;;;4.500000000000001;unknown
64862;BME280;62652;42.274;-71.436;2023-04-06T02:53:01;101740.0;;;4.61111111111111;unknown
64862;BME280;62652;42.274;-71.436;2023-04-06T02:54:01;101740.0;;;4.61111111111111;unknown
64862;BME280;62652;42.274;-71.436;2023-04-06T02:55:01;101730.0;;;4.61111111111111;unknown
64862;BME280;62652;42.274;-71.436;2023-04-06T02:56:01;101730.0;;;4.61111111111111;unknown
64862;BME280;62652;42.274;-71.436;2023-04-06T02:57:01;101730.0;;;4.61111111111111;unknown
64862;BME280;62652;42.274;-71.436;2023-04-06T02:58:01;101730.0;;;4.61111111111111;unknown
64862;BME280;62652;42.274;-71.436;2023-04-06T02:59:01;101730.0;;;4.500000000000001;unknown
64862;BME280;62652;42.274;-71.436;2023-04-06T03:00:01;101730.0;;;4.500000000000001;unknown
64862;BME280;62652;42.274;-71.436;2023-04-06T03:01:01;101730.0;;;4.500000000000001;unknown
64862;BME280;62652;42.274;-71.436;2023-04-06T03:02:01;101730.0;;;4.500000000000001;unknown
64862;BME280;62652;42.274;-71.436;2023-04-06T03:03:01;101740.0;;;4.388888888888888;unknown
64862;BME280;62652;42.274;-71.436;2023-04-06T03:04:01;101740.0;;;4.388888888888888;unknown
64862;BME280;62652;42.274;-71.436;2023-04-06T03:05:01;101730.0;;;4.388888888888888;unknown
64862;BME280;62652;42.274;-71.436;2023-04-06T03:06:01;101720.0;;;4.388888888888888;unknown
64862;BME280;62652;42.274;-71.436;2023-04-06T03:07:01;101720.0;;;4.388888888888888;unknown
64862;BME280;62652;42.274;-71.436;2023-04-06T03:08:01;101720.0;;;4.388888888888888;unknown
64862;BME280;62652;42.274;-71.436;2023-04-06T03:09:01;101720.0;;;4.388888888888888;unknown
64862;BME280;62652;42.274;-71.436;2023-04-06T03:10:01;101710.0;;;4.2777777777777795;unknown
64862;BME280;62652;42.274;-71.436;2023-04-06T03:11:01;101710.0;;;4.388888888888888;unknown
64862;BME280;62652;42.274;-71.436;2023-04-06T03:12:01;101710.0;;;4.2777777777777795;unknown
64862;BME280;62652;42.274;-71.436;2023-04-06T03:13:01;101710.0;;;4.388888888888888;unknown
64862;BME280;62652;42.274;-71.436;2023-04-06T03:14:01;101700.0;;;4.388888888888888;unknown
64862;BME280;62652;42.274;-71.436;2023-04-06T03:15:01;101710.0;;;4.388888888888888;unknown
64862;BME280;62652;42.274;-71.436;2023-04-06T03:16:01;101700.0;;;4.388888888888888;unknown
64862;BME280;62652;42.274;-71.436;2023-04-06T03:17:00;101700.0;;;4.388888888888888;unknown
64862;BME280;62652;42.274;-71.436;2023-04-06T03:18:01;101710.0;;;4.388888888888888;unknown
64862;BME280;62652;42.274;-71.436;2023-04-06T03:19:01;101690.0;;;4.388888888888888;unknown
64862;BME280;62652;42.274;-71.436;2023-04-06T03:20:01;101690.0;;;4.388888888888888;unknown
64862;BME280;62652;42.274;-71.436;2023-04-06T03:21:01;101700.0;;;4.388888888888888;unknown
64862;BME280;62652;42.274;-71.436;2023-04-06T03:22:01;101700.0;;;4.388888888888888;unknown
64862;BME280;62652;42.274;-71.436;2023-04-06T03:23:01;101700.0;;;4.2777777777777795;unknown
64862;BME280;62652;42.274;-71.436;2023-04-06T03:24:01;101690.0;;;4.388888888888888;unknown
64862;BME280;62652;42.274;-71.436;2023-04-06T03:25:01;101690.0;;;4.388888888888888;unknown
64862;BME280;62652;42.274;-71.436;2023-04-06T03:26:01;101690.0;;;4.2777777777777795;unknown
64862;BME280;62652;42.274;-71.436;2023-04-06T03:27:01;101680.0;;;4.2777777777777795;unknown
64862;BME280;62652;42.274;-71.436;2023-04-06T03:28:01;101680.0;;;4.2777777777777795;unknown
64862;BME280;62652;42.274;-71.436;2023-04-06T03:29:01;101680.0;;;4.2777777777777795;unknown
64862;BME280;62652;42.274;-71.436;2023-04-06T03:30:01;101680.0;;;4.2777777777777795;unknown
64862;BME280;62652;42.274;-71.436;2023-04-06T03:31:01;101680.0;;;4.2777777777777795;unknown
64862;BME280;62652;42.274;-71.436;2023-04-06T03:32:01;101680.0;;;4.2777777777777795;unknown
64862;BME280;62652;42.274;-71.436;2023-04-06T03:33:01;101680.0;;;4.2777777777777795;unknown
64862;BME280;62652;42.274;-71.436;2023-04-06T03:34:01;101680.0;;;4.2777777777777795;unknown
64862;BME280;62652;42.274;-71.436;2023-04-06T03:35:01;101680.0;;;4.2777777777777795;unknown
64862;BME280;62652;42.274;-71.436;2023-04-06T03:36:01;101670.0;;;4.2777777777777795;unknown
64862;BME280;62652;42.274;-71.436;2023-04-06T03:37:01;101670.0;;;4.2777777777777795;unknown
64862;BME280;62652;42.274;-71.436;2023-04-06T03:38:01;101680.0;;;4.2777777777777795;unknown
64862;BME280;62652;42.274;-71.436;2023-04-06T03:39:01;101680.0;;;4.222222222222223;unknown
64862;BME280;62652;42.274;-71.436;2023-04-06T03:40:01;101690.0;;;4.222222222222223;unknown
64862;BME280;62652;42.274;-71.436;2023-04-06T03:41:01;101690.0;;;4.222222222222223;unknown
64862;BME280;62652;42.274;-71.436;2023-04-06T03:42:01;101690.0;;;4.222222222222223;unknown
64862;BME280;62652;42.274;-71.436;2023-04-06T03:43:01;101680.0;;;4.222222222222223;unknown
64862;BME280;62652;42.274;-71.436;2023-04-06T03:44:01;101680.0;;;4.2777777777777795;unknown
64862;BME280;62652;42.274;-71.436;2023-04-06T03:45:01;101680.0;;;4.2777777777777795;unknown
64862;BME280;62652;42.274;-71.436;2023-04-06T03:46:01;101680.0;;;4.2777777777777795;unknown
64862;BME280;62652;42.274;-71.436;2023-04-06T03:47:01;101690.0;;;4.2777777777777795;unknown
64862;BME280;62652;42.274;-71.436;2023-04-06T03:48:01;101690.0;;;4.2777777777777795;unknown
64862;BME280;62652;42.274;-71.436;2023-04-06T03:49:01;101690.0;;;4.222222222222223;unknown
64862;BME280;62652;42.274;-71.436;2023-04-06T03:50:01;101690.0;;;4.222222222222223;unknown
64862;BME280;62652;42.274;-71.436;2023-04-06T03:51:01;101690.0;;;4.2777777777777795;unknown
64862;BME280;62652;42.274;-71.436;2023-04-06T03:52:01;101680.0;;;4.2777777777777795;unknown
64862;BME280;62652;42.274;-71.436;2023-04-06T03:53:01;101670.0;;;4.2777777777777795;unknown
64862;BME280;62652;42.274;-71.436;2023-04-06T03:54:01;101680.0;;;4.222222222222223;unknown
64862;BME280;62652;42.274;-71.436;2023-04-06T03:55:01;101670.0;;;4.222222222222223;unknown
64862;BME280;62652;42.274;-71.436;2023-04-06T03:56:01;101670.0;;;4.222222222222223;unknown
64862;BME280;62652;42.274;-71.436;2023-04-06T03:57:01;101680.0;;;4.222222222222223;unknown
64862;BME280;62652;42.274;-71.436;2023-04-06T03:58:01;101680.0;;;4.222222222222223;unknown
64862;BME280;62652;42.274;-71.436;2023-04-06T03:59:01;101680.0;;;4.222222222222223;unknown
64862;BME280;62652;42.274;-71.436;2023-04-06T04:00:01;101690.0;;;4.222222222222223;unknown
64862;BME280;62652;42.274;-71.436;2023-04-06T04:01:01;101690.0;;;4.222222222222223;unknown
64862;BME280;62652;42.274;-71.436;2023-04-06T04:02:01;101700.0;;;4.222222222222223;unknown
64862;BME280;62652;42.274;-71.436;2023-04-06T04:03:01;101700.0;;;4.222222222222223;unknown
64862;BME280;62652;42.274;-71.436;2023-04-06T04:04:01;101720.0;;;4.222222222222223;unknown
64862;BME280;62652;42.274;-71.436;2023-04-06T04:05:01;101720.0;;;4.222222222222223;unknown
64862;BME280;62652;42.274;-71.436;2023-04-06T04:06:01;101720.0;;;4.222222222222223;unknown
64862;BME280;62652;42.274;-71.436;2023-04-06T04:07:01;101710.0;;;4.222222222222223;unknown
64862;BME280;62652;42.274;-71.436;2023-04-06T04:08:01;101700.0;;;4.222222222222223;unknown
64862;BME280;62652;42.274;-71.436;2023-04-06T04:09:01;101700.0;;;4.222222222222223;unknown
64862;BME280;62652;42.274;-71.436;2023-04-06T04:10:01;101690.0;;;4.222222222222223;unknown
64862;BME280;62652;42.274;-71.436;2023-04-06T04:11:01;101690.0;;;4.222222222222223;unknown
64862;BME280;62652;42.274;-71.436;2023-04-06T04:12:01;101700.0;;;4.222222222222223;unknown
64862;BME280;62652;42.274;-71.436;2023-04-06T04:13:01;101700.0;;;4.222222222222223;unknown
64862;BME280;62652;42.274;-71.436;2023-04-06T04:14:01;101700.0;;;4.222222222222223;unknown
64862;BME280;62652;42.274;-71.436;2023-04-06T04:15:01;101690.0;;;4.111111111111111;unknown
64862;BME280;62652;42.274;-71.436;2023-04-06T04:16:01;101690.0;;;4.111111111111111;unknown
64862;BME280;62652;42.274;-71.436;2023-04-06T04:17:01;101690.0;;;4.222222222222223;unknown
64862;BME280;62652;42.274;-71.436;2023-04-06T04:18:01;101680.0;;;4.222222222222223;unknown
64862;BME280;62652;42.274;-71.436;2023-04-06T04:19:01;101690.0;;;4.222222222222223;unknown
64862;BME280;62652;42.274;-71.436;2023-04-06T04:20:01;101690.0;;;4.111111111111111;unknown
64862;BME280;62652;42.274;-71.436;2023-04-06T04:21:01;101700.0;;;4.111111111111111;unknown
64862;BME280;62652;42.274;-71.436;2023-04-06T04:22:01;101690.0;;;4.222222222222223;unknown
64862;BME280;62652;42.274;-71.436;2023-04-06T04:23:01;101690.0;;;4.222222222222223;unknown
64862;BME280;62652;42.274;-71.436;2023-04-06T04:24:01;101680.0;;;4.222222222222223;unknown